Observations for MADISON DANE RGNL, WI (MSN)

KMSN 261853Z 21006KT 10SM FEW050 30/17 A2975 RMK AO2 SLP069 T03000172   
KMSN 261753Z 00000KT 10SM FEW250 29/18 A2976 RMK AO2 SLP072 T02940183 10294 20200 58006 
KMSN 261653Z VRB03KT 10SM FEW250 28/18 A2977 RMK AO2 SLP076 T02830183   
KMSN 261553Z 23005KT 10SM FEW110 FEW250 27/18 A2978 RMK AO2 SLP078 T02670183
KMSN 261453Z COR 00000KT 10SM FEW110 FEW250 25/17 A2978 RMK AO2 SLP078 T02500172 51007  
KMSN 261353Z VRB04KT 10SM FEW110 FEW250 23/16 A2978 RMK AO2 SLP079 T02280161
KMSN 261253Z 23003KT 10SM FEW110 FEW250 21/16 A2977 RMK AO2 SLP076 T02110156
KMSN 261153Z 00000KT 10SM FEW120 FEW220 SCT250 20/16 A2976 RMK AO2 SLP071 T02000156 10222 20172 51007   
KMSN 261053Z 00000KT 10SM FEW210 BKN250 19/15 A2975 RMK AO2 SLP069 T01890150
KMSN 260953Z AUTO 23004KT 10SM CLR 19/16 A2975 RMK AO2 SLP068 T01890161 
KMSN 260853Z AUTO 00000KT 10SM CLR 18/17 A2974 RMK AO2 SLP064 T01780167 53005   
KMSN 260753Z AUTO 00000KT 10SM CLR 18/17 A2971 RMK AO2 SLP055 T01830172 
KMSN 260653Z AUTO 00000KT 10SM CLR 19/17 A2970 RMK AO2 SLP051 T01940167 
KMSN 260553Z AUTO 33004KT 10SM CLR 22/17 A2972 RMK AO2 SLP059 T02220172 10267 20217 402940189 56009 
KMSN 260453Z AUTO VRB05KT 10SM CLR 23/17 A2973 RMK AO2 PRESRR SLP060 T02280172  
KMSN 260353Z 19012KT 10SM FEW200 BKN230 24/17 A2972 RMK AO2 SLP056 LAST T02390172   
KMSN 260253Z 22007KT 10SM BKN250 24/17 A2975 RMK AO2 SLP068 T02440172 51004 
KMSN 260153Z 19005KT 10SM FEW100 BKN250 24/16 A2975 RMK AO2 SLP068 T02390161
KMSN 260053Z 24004KT 10SM FEW100 FEW250 26/16 A2975 RMK AO2 SLP069 T02560156
KMSN 252353Z 21006KT 10SM FEW050 FEW100 BKN250 27/16 A2974 RMK AO2 SLP065 T02670156 10294 20267 57012   
KMSN 252253Z 22007KT 190V250 10SM FEW050 FEW095 BKN250 27/17 A2975 RMK AO2 PK WND 20027/2202 SLP069 T02720172   
KMSN 252153Z 23007KT 10SM FEW048TCU FEW120 SCT180 BKN250 29/18 A2976 RMK AO2 SLP072 TCU OHD T02890183   
KMSN 252053Z 22005KT 10SM SCT050TCU BKN180 BKN250 29/18 A2977 RMK AO2 LTG DSNT S SLP076 TCU S-SW T02890183 58023
KMSN 251953Z 24006KT 10SM FEW047 BKN180 OVC250 28/18 A2980 RMK AO2 SLP086 T02830183 
KMSN 251853Z 21005G15KT 10SM FEW042 SCT160 BKN190 BKN250 28/19 A2983 RMK AO2 SLP093 T02830189